Time;durP1;ratioP1;P1;durP2;ratioP2;P2;SDS_P1;SDS_P2;PMS_P1;PMS_P2;Temp;Humidity;BMP_temperature;BMP_pressure;BME280_temperature;BME280_humidity;BME280_pressure;Samples;Min_cycle;Max_cycle;Signal;HPM_P1;HPM_P2
2023/06/24 00:03:37;;;;;;;11.25;7.20;;;;;;;20.22;68.88;99916.78;7711769;32;37864;-81
2023/06/24 00:07:56;;;;;;;11.57;6.35;;;;;;;20.25;68.84;99902.28;7711979;32;37325;-79
2023/06/24 00:12:18;;;;;;;10.43;6.53;;;;;;;20.29;67.64;99911.53;7711939;32;39431;-79
2023/06/24 00:16:36;;;;;;;10.85;6.32;;;;;;;20.39;66.86;99915.88;7697993;32;40790;-79
2023/06/24 00:20:52;;;;;;;10.90;6.75;;;;;;;20.32;66.85;99926.69;7711688;32;38009;-79
2023/06/24 00:25:09;;;;;;;12.23;6.22;;;;;;;20.15;67.41;99927.56;7711708;32;38031;-79
2023/06/24 00:29:25;;;;;;;10.10;6.35;;;;;;;20.14;67.33;99948.88;7685466;32;39928;-78
2023/06/24 00:33:42;;;;;;;11.35;6.40;;;;;;;20.28;67.06;99959.72;7711735;32;41009;-80
2023/06/24 00:37:58;;;;;;;10.85;6.60;;;;;;;20.33;66.07;99955.97;7711563;32;37718;-80
2023/06/24 00:42:14;;;;;;;9.32;5.62;;;;;;;20.10;66.37;99964.53;7711555;32;37946;-80
2023/06/24 00:46:33;;;;;;;10.77;6.05;;;;;;;20.38;65.37;99969.63;7697868;32;41024;-79
2023/06/24 00:50:49;;;;;;;10.35;5.90;;;;;;;20.21;65.96;99971.34;7710865;32;38928;-79
2023/06/24 00:55:06;;;;;;;13.77;7.03;;;;;;;19.91;67.32;99966.91;7711315;32;38627;-80
2023/06/24 00:59:23;;;;;;;12.88;7.57;;;;;;;20.06;67.06;99936.72;7711345;32;37207;-80
2023/06/24 01:03:40;;;;;;;11.82;7.57;;;;;;;20.12;66.86;99933.78;7697755;32;40242;-79
2023/06/24 01:07:56;;;;;;;12.77;7.22;;;;;;;19.97;67.45;99922.13;7711308;32;40638;-80
2023/06/24 01:12:13;;;;;;;12.63;7.93;;;;;;;19.97;68.05;99905.53;7697489;32;38748;-80
2023/06/24 01:16:54;;;;;;;10.75;6.87;;;;;;;19.98;67.69;99901.59;7711045;32;37173;-80
2023/06/24 01:21:32;;;;;;;17.65;7.55;;;;;;;19.98;67.44;99900.78;7711187;32;39469;-80
2023/06/24 01:25:52;;;;;;;13.60;7.18;;;;;;;19.79;68.27;99902.00;7697353;32;39879;-79
2023/06/24 01:30:23;;;;;;;13.57;6.68;;;;;;;19.69;68.41;99905.09;7710690;32;38414;-79
2023/06/24 01:35:11;;;;;;;14.38;7.12;;;;;;;19.61;68.39;99881.03;7710855;32;38257;-79
2023/06/24 01:39:31;;;;;;;9.98;5.80;;;;;;;19.74;67.62;99874.50;7698758;32;40144;-79
2023/06/24 01:43:50;;;;;;;12.35;6.85;;;;;;;19.60;66.92;99876.66;7697421;32;39973;-79
2023/06/24 01:48:16;;;;;;;10.60;5.80;;;;;;;19.35;67.69;99883.88;7697133;32;37466;-80
2023/06/24 01:52:34;;;;;;;11.90;5.87;;;;;;;19.62;66.12;99877.94;7969569;26;37929;-75
2023/06/24 01:56:52;;;;;;;9.82;5.10;;;;;;;19.64;65.84;99874.84;7737434;32;38470;-74
2023/06/24 02:01:08;;;;;;;11.95;4.97;;;;;;;19.30;66.71;99879.34;7723282;32;40544;-74
2023/06/24 02:05:25;;;;;;;8.70;5.10;;;;;;;19.78;65.23;99882.97;7722482;32;38698;-74
2023/06/24 02:09:43;;;;;;;7.35;4.43;;;;;;;19.63;65.81;99878.78;7710839;32;37821;-74
2023/06/24 02:14:01;;;;;;;8.07;4.12;;;;;;;19.59;65.56;99867.56;7723536;32;38380;-74
2023/06/24 02:18:18;;;;;;;9.68;4.40;;;;;;;19.22;65.59;99853.34;7723147;32;39987;-74
2023/06/24 02:22:36;;;;;;;9.65;4.20;;;;;;;19.48;64.94;99838.63;7723036;32;37951;-74
2023/06/24 02:26:53;;;;;;;6.70;4.12;;;;;;;19.33;65.42;99840.81;7736619;32;37065;-74
2023/06/24 02:31:10;;;;;;;6.35;3.72;;;;;;;19.52;65.02;99851.47;7736569;32;39241;-74
2023/06/24 02:35:26;;;;;;;7.05;4.03;;;;;;;19.35;65.10;99859.00;7722645;32;40006;-74
2023/06/24 02:39:44;;;;;;;10.95;4.00;;;;;;;19.47;65.04;99865.47;7736209;32;37917;-74
2023/06/24 02:44:00;;;;;;;7.72;3.50;;;;;;;19.16;66.13;99875.94;7736214;32;36868;-74
2023/06/24 02:48:18;;;;;;;6.97;3.40;;;;;;;19.31;65.07;99879.00;7736144;32;39318;-73
2023/06/24 02:52:36;;;;;;;8.18;2.87;;;;;;;19.18;65.12;99893.84;7722302;32;40660;-74
2023/06/24 02:56:57;;;;;;;6.57;3.42;;;;;;;19.15;65.32;99877.91;7735774;32;37970;-74
2023/06/24 03:01:16;;;;;;;5.70;3.30;;;;;;;19.24;64.90;99889.75;7735839;32;38019;-74
2023/06/24 03:05:32;;;;;;;7.62;3.55;;;;;;;18.93;65.46;99904.56;7735667;32;39338;-76
2023/06/24 03:09:50;;;;;;;6.47;3.60;;;;;;;18.93;65.95;99901.78;7721842;32;39886;-72
2023/06/24 03:14:06;;;;;;;9.27;3.12;;;;;;;19.19;65.30;99897.41;7736722;32;38752;-74
2023/06/24 03:18:22;;;;;;;7.10;3.40;;;;;;;19.13;65.68;99894.00;7739317;32;37135;-74
2023/06/24 03:22:39;;;;;;;5.30;2.92;;;;;;;18.65;65.99;99901.28;7739540;32;39351;-74
2023/06/24 03:26:56;;;;;;;5.25;2.40;;;;;;;18.45;66.66;99929.50;7739258;32;39927;-73
2023/06/24 03:31:15;;;;;;;6.30;2.35;;;;;;;18.67;65.90;99940.41;7739202;32;38791;-73
2023/06/24 03:35:32;;;;;;;5.70;2.60;;;;;;;18.63;65.86;99941.41;7739150;32;36031;-74
2023/06/24 03:39:49;;;;;;;5.53;2.65;;;;;;;18.38;66.84;99936.31;7739066;32;39324;-74
2023/06/24 03:44:05;;;;;;;6.28;3.05;;;;;;;18.55;65.76;99946.56;7739078;32;40817;-73
2023/06/24 03:48:22;;;;;;;7.03;2.40;;;;;;;18.59;66.06;99946.72;7738964;32;38557;-73
2023/06/24 03:52:38;;;;;;;8.15;2.85;;;;;;;18.60;66.08;99948.37;7738700;32;37633;-74
2023/06/24 03:56:54;;;;;;;5.43;2.80;;;;;;;18.77;65.43;99950.34;7738971;32;39292;-74
2023/06/24 04:01:10;;;;;;;5.32;3.00;;;;;;;19.05;64.91;99948.09;7738851;32;40847;-74
2023/06/24 04:05:27;;;;;;;8.30;3.03;;;;;;;18.69;65.92;99953.91;7738694;32;38048;-74
2023/06/24 04:09:43;;;;;;;5.47;3.37;;;;;;;18.80;65.18;99957.16;7738743;32;37043;-73
2023/06/24 04:13:59;;;;;;;9.20;3.30;;;;;;;19.07;64.48;99961.59;7724963;32;40190;-74
2023/06/24 04:18:16;;;;;;;9.32;3.03;;;;;;;18.74;65.75;99960.06;7738555;32;39753;-74
2023/06/24 04:22:32;;;;;;;8.23;2.78;;;;;;;18.82;65.50;99943.88;7738448;32;37648;-73
2023/06/24 04:26:48;;;;;;;5.20;2.67;;;;;;;19.17;64.27;99949.41;7737685;32;38048;-73
2023/06/24 04:31:05;;;;;;;6.55;2.08;;;;;;;18.78;65.16;99954.72;7738575;32;40183;-73
2023/06/24 04:35:21;;;;;;;6.60;3.22;;;;;;;18.85;64.91;99957.88;7738460;32;41038;-73
2023/06/24 04:39:38;;;;;;;4.75;2.20;;;;;;;18.76;65.04;99960.59;7738204;32;38650;-73
2023/06/24 04:43:54;;;;;;;7.07;2.62;;;;;;;19.00;64.36;99966.81;7738359;32;36884;-73
2023/06/24 04:48:10;;;;;;;4.32;2.10;;;;;;;18.97;64.43;99967.44;7738361;32;39326;-73
2023/06/24 04:52:26;;;;;;;9.02;2.15;;;;;;;19.14;63.92;99956.41;7738136;32;40003;-73
2023/06/24 04:56:44;;;;;;;4.32;1.90;;;;;;;18.59;64.98;99957.78;7738091;32;38111;-74
2023/06/24 05:01:04;;;;;;;3.72;1.98;;;;;;;18.97;63.47;99973.78;7738164;32;37882;-74
2023/06/24 05:05:20;;;;;;;3.80;1.70;;;;;;;19.44;63.30;99965.66;7738088;32;39981;-73
2023/06/24 05:09:37;;;;;;;3.62;1.83;;;;;;;18.80;63.70;99968.19;7738038;32;40037;-68
2023/06/24 05:13:53;;;;;;;4.03;1.85;;;;;;;18.74;64.40;99978.59;7738000;32;39106;-69
2023/06/24 05:18:10;;;;;;;4.78;1.70;;;;;;;18.86;64.17;99989.84;7712084;32;36926;-68
2023/06/24 05:22:26;;;;;;;4.40;1.40;;;;;;;19.11;63.81;99995.75;7711306;32;39850;-68
2023/06/24 05:26:42;;;;;;;2.53;1.50;;;;;;;19.18;63.14;99989.72;7711055;32;40545;-68
2023/06/24 05:30:58;;;;;;;1.65;1.55;;;;;;;18.77;64.34;99981.53;7711052;32;38600;-68
2023/06/24 05:35:14;;;;;;;4.25;1.50;;;;;;;18.80;65.22;99991.13;7711107;32;37754;-68
2023/06/24 05:39:31;;;;;;;2.03;1.50;;;;;;;19.08;64.67;100001.91;7710823;32;40170;-69
2023/06/24 05:43:48;;;;;;;6.15;1.42;;;;;;;18.99;65.34;100001.91;7710910;32;40042;-68
2023/06/24 05:48:04;;;;;;;2.72;1.12;;;;;;;19.29;64.05;100002.09;7710773;32;38868;-69
2023/06/24 05:52:21;;;;;;;2.65;1.37;;;;;;;19.43;64.10;99997.19;7726418;32;37319;-69
2023/06/24 05:56:38;;;;;;;1.40;1.17;;;;;;;19.88;62.55;99987.72;7737430;32;40038;-74
2023/06/24 06:00:55;;;;;;;1.70;1.25;;;;;;;20.14;61.03;99998.69;7737379;32;39883;-74
2023/06/24 06:05:12;;;;;;;1.45;1.20;;;;;;;19.77;62.46;100009.41;7737275;32;38013;-73
2023/06/24 06:09:28;;;;;;;0.98;0.90;;;;;;;19.70;62.17;100000.75;7737182;32;37870;-74
2023/06/24 06:13:44;;;;;;;3.62;1.10;;;;;;;19.74;63.24;100001.75;7737164;32;39070;-74
2023/06/24 06:18:00;;;;;;;2.22;1.30;;;;;;;19.93;62.97;99984.78;7736940;32;40793;-75
2023/06/24 06:22:17;;;;;;;1.87;1.17;;;;;;;19.79;63.76;99992.47;7736420;32;38679;-73
2023/06/24 06:26:34;;;;;;;1.67;1.00;;;;;;;19.85;61.91;100008.56;7736744;32;37103;-74
2023/06/24 06:30:50;;;;;;;1.85;1.20;;;;;;;20.08;61.76;100005.56;7726929;32;314260;-74
2023/06/24 06:35:08;;;;;;;2.35;1.20;;;;;;;20.04;62.45;100004.59;7736537;32;40831;-74
2023/06/24 06:39:24;;;;;;;1.98;1.05;;;;;;;20.43;60.93;99999.91;7736218;32;38654;-74
2023/06/24 06:43:40;;;;;;;1.42;1.10;;;;;;;20.34;61.24;100024.84;7736340;32;37017;-74
2023/06/24 06:47:57;;;;;;;3.95;1.23;;;;;;;20.24;61.78;100023.25;7736501;32;39982;-73
2023/06/24 06:52:13;;;;;;;7.75;1.60;;;;;;;20.66;61.13;100016.25;7739690;32;39927;-74
2023/06/24 06:56:33;;;;;;;1.30;1.08;;;;;;;20.75;60.47;100023.37;7739820;32;38578;-74
2023/06/24 07:00:50;;;;;;;2.95;1.42;;;;;;;20.88;60.92;100026.25;7739642;32;37731;-73
2023/06/24 07:05:06;;;;;;;3.92;1.20;;;;;;;20.77;60.78;100025.81;7739692;32;40015;-74
2023/06/24 07:09:22;;;;;;;2.50;1.23;;;;;;;21.49;59.37;100029.41;7739519;32;40096;-74
2023/06/24 07:13:39;;;;;;;2.70;1.30;;;;;;;22.00;57.89;100020.91;7739376;32;38810;-74
2023/06/24 07:17:55;;;;;;;3.97;1.42;;;;;;;21.95;56.22;100026.69;7725607;32;37284;-77
2023/06/24 07:22:12;;;;;;;1.52;1.27;;;;;;;22.20;55.17;100026.75;7739479;32;40132;-75
2023/06/24 07:26:29;;;;;;;1.65;1.25;;;;;;;22.35;55.85;100030.84;7739432;32;40593;-74
2023/06/24 07:30:46;;;;;;;3.17;1.70;;;;;;;22.72;53.81;100012.22;7739414;32;37800;-74
2023/06/24 07:35:02;;;;;;;2.53;1.10;;;;;;;22.76;56.30;100006.78;7739375;32;37590;-70
2023/06/24 07:39:18;;;;;;;1.75;1.00;;;;;;;23.46;55.17;100011.25;7739159;32;40036;-70
2023/06/24 07:43:34;;;;;;;1.95;1.27;;;;;;;23.76;52.05;100017.28;7737296;32;40871;-70
2023/06/24 07:47:51;;;;;;;3.30;1.17;;;;;;;24.02;52.31;100016.03;7739047;32;38945;-70
2023/06/24 07:52:07;;;;;;;1.45;1.00;;;;;;;24.26;50.43;100010.28;7738913;32;37023;-70
2023/06/24 07:56:23;;;;;;;1.55;1.30;;;;;;;24.53;49.93;100014.16;7738858;32;39400;-70
2023/06/24 08:00:40;;;;;;;3.67;1.40;;;;;;;24.23;49.75;100022.12;7736228;32;41357;-70
2023/06/24 08:04:56;;;;;;;2.60;1.20;;;;;;;24.53;51.16;100024.50;7738851;32;37716;-70
2023/06/24 08:09:12;;;;;;;4.37;1.58;;;;;;;24.78;51.49;100024.31;7738830;32;37091;-70
2023/06/24 08:13:28;;;;;;;1.58;1.48;;;;;;;24.62;49.38;100025.12;7738964;32;40077;-69
2023/06/24 08:17:50;;;;;;;1.80;1.35;;;;;;;24.47;48.82;100018.34;7738663;32;40919;-70
2023/06/24 08:22:06;;;;;;;1.77;1.23;;;;;;;24.19;50.29;100022.03;7738595;32;38067;-74
2023/06/24 08:26:22;;;;;;;3.37;1.58;;;;;;;24.00;50.12;100028.31;7738961;32;35991;-75
2023/06/24 08:30:39;;;;;;;1.35;1.20;;;;;;;24.07;52.04;100030.47;7738513;32;39335;-75
2023/06/24 08:34:55;;;;;;;3.40;2.15;;;;;;;23.87;52.97;100032.34;7736010;32;40759;-74
2023/06/24 08:39:12;;;;;;;6.10;1.27;;;;;;;23.88;53.62;100025.59;7735557;32;39215;-74
2023/06/24 08:43:28;;;;;;;3.00;1.17;;;;;;;23.88;54.17;100022.81;7736402;32;36999;-75
2023/06/24 08:47:47;;;;;;;7.72;1.20;;;;;;;23.84;52.87;100019.13;7736303;32;40021;-75
2023/06/24 08:52:16;;;;;;;2.12;1.30;;;;;;;23.84;52.87;100010.78;7736405;32;40810;-74
2023/06/24 08:56:38;;;;;;;3.83;1.80;;;;;;;23.76;51.55;100015.31;7734095;32;38012;-75
2023/06/24 09:00:55;;;;;;;2.92;1.77;;;;;;;24.09;52.25;100016.19;7736183;32;37169;-74
2023/06/24 09:05:11;;;;;;;1.98;1.08;;;;;;;23.95;52.42;100020.22;7721399;32;39303;-72
2023/06/24 09:09:28;;;;;;;1.25;1.12;;;;;;;24.23;51.24;100015.75;7736358;32;40063;-75
2023/06/24 09:13:45;;;;;;;3.50;1.58;;;;;;;24.23;51.24;100018.53;7735477;32;38684;-74
2023/06/24 09:18:07;;;;;;;1.55;1.20;;;;;;;24.55;49.94;100020.19;7735554;32;35552;-74
2023/06/24 09:22:28;;;;;;;7.30;1.70;;;;;;;24.34;50.65;100016.84;7735517;32;40111;-74
2023/06/24 09:26:45;;;;;;;4.47;1.75;;;;;;;24.77;50.31;100017.94;7735005;32;39741;-75
2023/06/24 09:31:06;;;;;;;3.12;1.58;;;;;;;24.91;50.25;100018.25;7737750;32;38766;-75
2023/06/24 09:35:35;;;;;;;;;;;;;;;24.77;51.49;100022.66;7738163;32;36728;-73
2023/06/24 09:39:51;;;;;;;3.30;1.75;;;;;;;24.87;50.60;100017.38;7737938;32;39623;-76
2023/06/24 09:44:13;;;;;;;1.12;1.02;;;;;;;25.15;50.51;100018.34;7723867;32;40890;-75
2023/06/24 09:48:30;;;;;;;2.10;1.48;;;;;;;25.27;47.74;100019.06;7737700;32;38050;-75
2023/06/24 09:52:47;;;;;;;3.62;1.73;;;;;;;25.34;48.37;100024.00;7737408;32;36788;-75
2023/06/24 09:57:05;;;;;;;2.30;1.40;;;;;;;25.44;50.20;100022.59;7737522;32;39448;-75
2023/06/24 10:01:22;;;;;;;2.03;1.25;;;;;;;25.99;46.56;100016.91;7737231;32;40779;-74
2023/06/24 10:05:38;;;;;;;3.15;1.08;;;;;;;25.88;46.20;100013.09;7723283;32;37698;-75
2023/06/24 10:09:55;;;;;;;1.55;1.20;;;;;;;25.87;48.52;100023.44;7737158;32;37952;-74
2023/06/24 10:14:11;;;;;;;9.15;1.42;;;;;;;25.75;47.61;100010.47;7737079;32;40108;-74
2023/06/24 10:18:36;;;;;;;2.10;1.55;;;;;;;25.87;47.94;100001.09;7723262;32;39603;-74
2023/06/24 10:22:53;;;;;;;1.23;1.12;;;;;;;25.66;47.77;99996.75;7737005;32;36967;-74
2023/06/24 10:27:16;;;;;;;3.12;1.50;;;;;;;25.62;50.28;99995.06;7739715;32;37777;-75
2023/06/24 10:31:44;;;;;;;1.52;1.40;;;;;;;25.95;48.61;99990.91;7727001;32;39091;-75
2023/06/24 10:36:01;;;;;;;1.73;1.25;;;;;;;26.14;47.53;99985.25;7740015;32;39990;-74
2023/06/24 10:40:33;;;;;;;2.85;1.50;;;;;;;25.82;49.10;99982.69;7739796;32;37880;-75
2023/06/24 10:44:51;;;;;;;4.57;1.60;;;;;;;25.99;47.34;99975.00;7728229;32;36679;-75
2023/06/24 10:49:08;;;;;;;2.22;1.40;;;;;;;25.94;48.06;99980.88;7725958;32;39455;-75
2023/06/24 10:53:24;;;;;;;6.45;1.40;;;;;;;26.13;48.22;99961.31;7739467;32;40522;-74
2023/06/24 10:57:41;;;;;;;3.90;1.70;;;;;;;25.68;49.72;99960.06;7739555;32;38755;-74
2023/06/24 11:01:57;;;;;;;1.77;1.67;;;;;;;26.10;47.71;99956.47;7739639;32;37092;-75
2023/06/24 11:06:14;;;;;;;1.70;1.42;;;;;;;25.68;48.66;99965.66;7739702;32;39386;-75
2023/06/24 11:10:30;;;;;;;3.45;1.60;;;;;;;26.09;48.53;99968.81;7739577;32;39708;-75
2023/06/24 11:14:47;;;;;;;2.20;1.50;;;;;;;26.64;47.12;99968.53;7739524;32;37997;-75
2023/06/24 11:19:04;;;;;;;2.08;1.48;;;;;;;26.84;45.99;99955.25;7739485;32;37011;-74
2023/06/24 11:23:21;;;;;;;4.57;1.55;;;;;;;26.57;46.99;99954.41;7725858;32;39349;-74
2023/06/24 11:27:38;;;;;;;4.60;1.55;;;;;;;26.60;46.18;99960.06;7739398;32;39952;-74
2023/06/24 11:31:55;;;;;;;2.15;1.55;;;;;;;27.10;45.94;99953.59;7739178;32;37846;-74
2023/06/24 11:36:11;;;;;;;2.37;1.60;;;;;;;26.73;45.83;99957.88;7739014;32;37200;-74
2023/06/24 11:40:30;;;;;;;2.08;1.52;;;;;;;27.49;46.03;99944.84;7739725;32;39064;-75
2023/06/24 11:44:46;;;;;;;1.87;1.35;;;;;;;27.59;43.56;99946.16;7739170;32;38964;-76
2023/06/24 11:49:09;;;;;;;3.03;1.70;;;;;;;27.64;44.02;99943.81;7725107;32;38665;-75
2023/06/24 11:53:41;;;;;;;;;;;;;;;27.06;45.86;99953.53;7711319;32;37771;-75
2023/06/24 11:58:04;;;;;;;2.22;1.37;;;;;;;26.88;45.84;99952.50;7712557;32;39643;-76
2023/06/24 12:02:21;;;;;;;3.75;1.70;;;;;;;26.70;46.82;99941.84;7712107;32;41021;-76
2023/06/24 12:06:37;;;;;;;5.78;1.85;;;;;;;26.23;46.79;99952.31;7711975;32;37902;-75
2023/06/24 12:10:54;;;;;;;3.80;1.70;;;;;;;26.30;46.89;99937.66;7712041;32;37110;-77
2023/06/24 12:15:10;;;;;;;2.95;1.70;;;;;;;26.20;48.15;99941.06;7698558;32;39868;-78
2023/06/24 12:19:26;;;;;;;3.92;1.77;;;;;;;25.97;49.39;99935.47;7698814;32;40215;-78
2023/06/24 12:23:43;;;;;;;3.92;1.95;;;;;;;26.53;47.97;99926.41;7712123;32;38070;-79
2023/06/24 12:27:59;;;;;;;3.67;1.73;;;;;;;27.29;47.02;99917.06;7710716;32;37002;-76
2023/06/24 12:32:16;;;;;;;2.17;1.70;;;;;;;26.75;47.84;99923.94;7710915;32;40169;-75
2023/06/24 12:36:32;;;;;;;2.42;2.20;;;;;;;27.42;44.82;99920.38;7711767;32;39653;-74
2023/06/24 12:40:48;;;;;;;3.83;2.20;;;;;;;26.60;46.92;99934.09;7711627;32;38661;-75
2023/06/24 12:45:05;;;;;;;7.03;2.15;;;;;;;26.94;46.55;99925.78;7710915;32;37093;-74
2023/06/24 12:49:22;;;;;;;3.05;2.08;;;;;;;27.15;47.73;99923.25;7710783;32;39388;-75
2023/06/24 12:53:38;;;;;;;2.87;2.30;;;;;;;27.43;45.03;99921.22;7735220;32;40005;-75
2023/06/24 12:57:54;;;;;;;2.97;2.17;;;;;;;27.35;45.05;99915.53;7738154;32;37946;-75
2023/06/24 13:02:11;;;;;;;3.35;2.30;;;;;;;27.71;44.37;99903.88;7738239;32;38190;-75
2023/06/24 13:06:27;;;;;;;3.78;2.60;;;;;;;27.70;44.79;99905.88;7738061;32;39289;-76
2023/06/24 13:10:43;;;;;;;3.65;2.60;;;;;;;27.08;45.25;99905.56;7738192;32;40029;-75
2023/06/24 13:15:00;;;;;;;5.07;2.65;;;;;;;26.55;47.27;99906.47;7738000;32;37995;-75
2023/06/24 13:19:17;;;;;;;4.28;2.97;;;;;;;26.81;46.72;99902.84;7738015;32;36735;-75
2023/06/24 13:23:33;;;;;;;3.55;2.70;;;;;;;27.43;45.56;99901.63;7736942;32;37984;-76
2023/06/24 13:27:50;;;;;;;3.80;2.92;;;;;;;27.88;45.36;99897.62;7736303;32;40037;-77
2023/06/24 13:32:06;;;;;;;5.05;2.72;;;;;;;27.94;43.63;99912.16;7719957;32;38481;-77
2023/06/24 13:36:35;;;;;;;5.30;3.22;;;;;;;27.93;43.70;99918.13;7729903;32;37103;-78
2023/06/24 13:40:52;;;;;;;3.35;2.78;;;;;;;28.00;43.56;99910.56;7722198;32;40102;-78
2023/06/24 13:45:08;;;;;;;4.62;2.67;;;;;;;27.50;44.78;99922.09;7735175;32;39360;-75
2023/06/24 13:49:25;;;;;;;9.32;3.20;;;;;;;27.43;44.30;99921.22;7732492;32;38007;-75
2023/06/24 13:53:42;;;;;;;7.32;3.17;;;;;;;26.91;46.32;99918.97;7733616;32;37927;-77
2023/06/24 13:57:58;;;;;;;5.18;3.00;;;;;;;27.27;45.57;99913.00;7733636;32;39267;-75
2023/06/24 14:02:14;;;;;;;5.60;3.20;;;;;;;27.17;46.88;99920.09;7733502;32;40731;-77
2023/06/24 14:06:31;;;;;;;4.45;3.30;;;;;;;27.55;44.56;99918.13;7734061;32;37509;-78
2023/06/24 14:10:49;;;;;;;5.82;3.60;;;;;;;27.97;42.10;99927.38;7734447;32;37006;-75
2023/06/24 14:15:08;;;;;;;4.47;2.78;;;;;;;27.93;43.53;99920.94;7735153;32;40162;-75
2023/06/24 14:19:25;;;;;;;4.32;2.97;;;;;;;27.80;45.16;99912.75;7734994;32;40878;-75
2023/06/24 14:23:41;;;;;;;4.00;2.90;;;;;;;28.00;43.34;99910.56;7736529;32;37851;-77
2023/06/24 14:27:58;;;;;;;4.20;3.00;;;;;;;28.49;43.17;99902.91;7736574;32;37384;-77
2023/06/24 14:32:14;;;;;;;3.10;2.72;;;;;;;28.51;42.29;99896.91;7736696;32;39854;-77
2023/06/24 14:36:31;;;;;;;4.15;2.75;;;;;;;27.52;44.32;99879.72;7736326;32;40021;-77
2023/06/24 14:40:47;;;;;;;10.13;3.22;;;;;;;28.34;43.29;99885.22;7736087;32;38112;-77
2023/06/24 14:45:03;;;;;;;4.53;3.30;;;;;;;28.82;42.47;99884.28;7731329;32;37889;-77
2023/06/24 14:49:20;;;;;;;4.35;2.90;;;;;;;28.29;42.73;99888.38;7735735;32;39404;-76
2023/06/24 14:53:36;;;;;;;4.93;2.97;;;;;;;28.48;43.25;99885.28;7734829;32;39697;-76
2023/06/24 14:57:52;;;;;;;4.50;3.25;;;;;;;28.44;42.53;99884.47;7735880;32;37986;-75
2023/06/24 15:02:09;;;;;;;4.85;3.55;;;;;;;27.87;43.48;99873.63;7730445;32;37757;-78
2023/06/24 15:06:25;;;;;;;9.18;3.67;;;;;;;27.04;46.29;99871.16;7716047;32;40050;-79
2023/06/24 15:10:42;;;;;;;5.78;3.70;;;;;;;26.46;47.58;99881.59;7734616;32;40759;-78
2023/06/24 15:14:59;;;;;;;4.87;3.60;;;;;;;26.75;46.71;99870.81;7734136;32;37826;-77
2023/06/24 15:19:16;;;;;;;7.32;4.07;;;;;;;26.90;46.81;99869.00;7733436;32;37054;-77
2023/06/24 15:23:32;;;;;;;6.40;4.00;;;;;;;26.19;48.35;99867.59;7734164;32;40035;-77
2023/06/24 15:27:48;;;;;;;9.70;3.92;;;;;;;26.57;47.77;99860.16;7733577;32;40011;-77
2023/06/24 15:32:05;;;;;;;4.82;3.35;;;;;;;26.52;47.69;99852.09;7734577;32;38060;-78
2023/06/24 15:36:25;;;;;;;5.57;3.95;;;;;;;26.67;47.13;99852.34;7734066;32;37027;-79
2023/06/24 15:40:42;;;;;;;7.25;3.80;;;;;;;27.06;46.95;99858.41;7735470;32;40218;-78
2023/06/24 15:44:59;;;;;;;8.25;3.83;;;;;;;26.42;47.76;99861.16;7733539;32;40848;-78
2023/06/24 15:49:15;;;;;;;5.57;3.35;;;;;;;26.66;47.67;99850.72;7734822;32;38151;-78
2023/06/24 15:53:35;;;;;;;7.80;3.75;;;;;;;26.88;46.50;99852.59;7731972;32;37603;-77
2023/06/24 15:57:55;;;;;;;7.32;3.53;;;;;;;27.00;46.78;99847.94;7731505;32;39715;-78
2023/06/24 16:02:11;;;;;;;4.50;3.22;;;;;;;27.14;46.88;99842.50;7738075;32;39486;-78
2023/06/24 16:06:28;;;;;;;5.55;3.30;;;;;;;27.41;46.02;99846.00;7737987;32;37983;-76
2023/06/24 16:10:45;;;;;;;5.20;3.00;;;;;;;27.68;44.56;99846.66;7723877;32;37041;-76
2023/06/24 16:15:02;;;;;;;3.72;3.00;;;;;;;27.66;43.55;99834.22;7723462;32;39392;-76
2023/06/24 16:19:18;;;;;;;6.43;2.87;;;;;;;27.16;43.38;99838.16;7738051;32;39993;-76
2023/06/24 16:23:36;;;;;;;4.90;3.05;;;;;;;27.64;42.68;99843.03;7720673;32;38142;-76
2023/06/24 16:27:52;;;;;;;5.68;3.37;;;;;;;26.55;46.74;99840.16;7724731;32;36980;-77
2023/06/24 16:32:08;;;;;;;8.80;3.10;;;;;;;27.28;44.93;99837.06;7738373;32;39928;-77
2023/06/24 16:36:24;;;;;;;3.92;2.55;;;;;;;27.13;44.49;99838.09;7738316;32;39894;-77
2023/06/24 16:40:41;;;;;;;9.18;3.17;;;;;;;26.98;44.54;99843.53;7734641;32;38141;-78
2023/06/24 16:44:57;;;;;;;5.78;3.03;;;;;;;27.08;45.13;99844.03;7738059;32;37746;-80
2023/06/24 16:49:13;;;;;;;5.97;3.33;;;;;;;27.20;44.62;99846.56;7733007;32;39378;-78
2023/06/24 16:53:30;;;;;;;6.10;3.22;;;;;;;27.28;44.33;99850.28;7737555;32;40879;-77
2023/06/24 16:57:46;;;;;;;5.32;3.40;;;;;;;26.96;45.47;99848.69;7732303;32;38400;-77
2023/06/24 17:02:02;;;;;;;6.72;3.60;;;;;;;26.58;45.56;99861.78;7723836;32;36729;-77
2023/06/24 17:06:19;;;;;;;8.48;3.85;;;;;;;26.41;45.88;99865.13;7738191;32;39504;-76
2023/06/24 17:10:35;;;;;;;6.90;4.05;;;;;;;26.30;45.83;99862.19;7736618;32;39872;-78
2023/06/24 17:14:52;;;;;;;8.30;4.10;;;;;;;26.22;46.08;99872.44;7712124;32;38765;-76
2023/06/24 17:19:08;;;;;;;10.70;5.00;;;;;;;26.10;46.86;99869.88;7736754;32;38017;-76
2023/06/24 17:23:28;;;;;;;5.28;3.87;;;;;;;26.28;45.67;99872.13;7737084;32;39526;-76
2023/06/24 17:27:44;;;;;;;7.62;4.43;;;;;;;26.48;46.70;99868.03;7737274;32;40792;-76
2023/06/24 17:32:01;;;;;;;8.55;5.18;;;;;;;26.28;46.29;99858.16;7736535;32;37979;-76
2023/06/24 17:36:17;;;;;;;9.13;5.20;;;;;;;26.04;45.96;99866.59;7737247;32;37850;-75
2023/06/24 17:40:33;;;;;;;10.43;5.07;;;;;;;26.10;45.29;99869.88;7722701;32;40100;-75
2023/06/24 17:44:50;;;;;;;6.95;4.85;;;;;;;24.81;49.14;99876.63;7714103;32;40005;-75
2023/06/24 17:49:06;;;;;;;9.55;4.90;;;;;;;25.26;48.23;99879.94;7736265;32;37572;-76
2023/06/24 17:53:22;;;;;;;8.23;5.10;;;;;;;25.52;47.42;99881.22;7719557;32;37723;-79
2023/06/24 17:57:39;;;;;;;7.90;5.18;;;;;;;25.12;47.94;99886.03;7720680;32;40110;-79
2023/06/24 18:01:55;;;;;;;7.90;4.85;;;;;;;24.91;48.42;99884.41;7736292;32;40885;-78
2023/06/24 18:06:11;;;;;;;10.48;4.53;;;;;;;24.27;49.77;99905.25;7736628;32;38938;-77
2023/06/24 18:10:28;;;;;;;7.80;5.00;;;;;;;24.03;50.95;99900.69;7736667;32;37129;-78
2023/06/24 18:14:44;;;;;;;13.68;5.82;;;;;;;23.30;52.93;99902.72;7726798;32;39821;-77
2023/06/24 18:19:00;;;;;;;8.70;5.12;;;;;;;23.51;52.28;99892.19;7710030;32;40589;-76
2023/06/24 18:23:16;;;;;;;8.98;4.72;;;;;;;23.37;52.62;99891.81;7714593;32;37925;-77
2023/06/24 18:27:33;;;;;;;8.60;4.97;;;;;;;23.23;52.34;99901.37;7715683;32;37247;-78
2023/06/24 18:31:49;;;;;;;9.18;4.93;;;;;;;23.52;51.57;99910.50;7715616;32;39375;-77
2023/06/24 18:36:05;;;;;;;8.27;5.07;;;;;;;23.19;52.71;99919.13;7709662;32;40810;-78
2023/06/24 18:40:21;;;;;;;10.02;5.37;;;;;;;23.13;53.07;99914.97;7727763;32;37861;-77
2023/06/24 18:44:38;;;;;;;9.15;5.05;;;;;;;22.81;53.90;99912.84;7733433;32;37418;-77
2023/06/24 18:48:54;;;;;;;11.85;5.28;;;;;;;23.00;53.51;99916.97;7735116;32;39955;-78
2023/06/24 18:53:11;;;;;;;9.23;5.20;;;;;;;23.03;53.47;99919.06;7732230;32;39711;-79
2023/06/24 18:57:27;;;;;;;13.93;5.50;;;;;;;22.79;53.74;99922.72;7733473;32;38000;-78
2023/06/24 19:01:45;;;;;;;8.70;5.10;;;;;;;22.65;54.10;99929.44;7734297;32;35405;-76
2023/06/24 19:06:01;;;;;;;8.40;5.00;;;;;;;22.67;54.16;99937.44;7732457;32;39318;-77
2023/06/24 19:10:18;;;;;;;10.75;5.40;;;;;;;22.25;55.35;99948.75;7733251;32;39985;-76
2023/06/24 19:14:34;;;;;;;8.00;4.72;;;;;;;22.22;55.95;99946.69;7734183;32;38428;-77
2023/06/24 19:18:51;;;;;;;10.32;5.20;;;;;;;22.15;56.14;99954.78;7737842;32;37037;-77
2023/06/24 19:23:08;;;;;;;9.52;5.68;;;;;;;22.23;55.98;99959.41;7738991;32;39394;-79
2023/06/24 19:27:24;;;;;;;8.90;5.50;;;;;;;22.35;55.49;99970.53;7738405;32;40065;-81
2023/06/24 19:31:40;;;;;;;13.18;5.68;;;;;;;22.33;55.13;99972.88;7729564;32;37902;-82
2023/06/24 19:35:57;;;;;;;10.95;5.40;;;;;;;22.34;55.23;99968.13;7722854;32;37953;-80
2023/06/24 19:40:13;;;;;;;10.52;4.97;;;;;;;22.42;55.19;99979.13;7712493;32;39413;-76
2023/06/24 19:44:31;;;;;;;7.55;4.85;;;;;;;22.39;55.15;99977.03;7723626;32;39735;-76
2023/06/24 19:48:47;;;;;;;8.88;5.12;;;;;;;22.48;55.04;99979.69;7732233;32;38180;-79
2023/06/24 19:53:03;;;;;;;9.90;5.78;;;;;;;22.65;54.79;99978.66;7734406;32;36972;-78
2023/06/24 19:57:20;;;;;;;9.15;5.18;;;;;;;22.50;55.29;99975.41;7733178;32;39446;-77
2023/06/24 20:01:37;;;;;;;10.43;5.87;;;;;;;22.56;55.08;99986.28;7721218;32;39987;-77
2023/06/24 20:05:53;;;;;;;12.93;5.40;;;;;;;22.63;54.74;99986.53;7731454;32;37868;-80
2023/06/24 20:10:10;;;;;;;8.48;5.25;;;;;;;22.76;54.51;99984.53;7732736;32;38040;-76